createdAt,value
2023-02-16T00:00:29.392Z,-6.75
2023-02-16T00:02:56.312Z,-6.77
2023-02-16T00:05:34.382Z,-6.77
2023-02-16T00:08:01.724Z,-6.74
2023-02-16T00:10:33.847Z,-6.70
2023-02-16T00:13:19.242Z,-6.66
2023-02-16T00:15:46.210Z,-6.68
2023-02-16T00:18:17.154Z,-6.73
2023-02-16T00:20:43.833Z,-6.76
2023-02-16T00:23:10.464Z,-6.76
2023-02-16T00:25:37.940Z,-6.75
2023-02-16T00:28:10.264Z,-6.80
2023-02-16T00:30:36.803Z,-6.83
2023-02-16T00:33:05.542Z,-6.76
2023-02-16T00:35:32.047Z,-6.73
2023-02-16T00:37:58.726Z,-6.67
2023-02-16T00:40:25.343Z,-6.72
2023-02-16T00:42:51.950Z,-6.87
2023-02-16T00:45:21.015Z,-6.87
2023-02-16T00:47:51.132Z,-6.78
2023-02-16T00:50:22.282Z,-6.73
2023-02-16T00:52:49.543Z,-6.74
2023-02-16T00:55:26.810Z,-6.74
2023-02-16T00:58:22.660Z,-6.69
2023-02-16T01:00:52.611Z,-6.65
2023-02-16T01:03:23.430Z,-6.67
2023-02-16T01:06:10.460Z,-6.62
2023-02-16T01:08:55.727Z,-6.53
2023-02-16T01:11:24.151Z,-6.45
2023-02-16T01:13:51.867Z,-6.43
2023-02-16T01:16:25.094Z,-6.32
2023-02-16T01:18:52.481Z,-6.27
2023-02-16T01:21:19.456Z,-6.20
2023-02-16T01:23:46.039Z,-6.19
2023-02-16T01:26:16.479Z,-6.12
2023-02-16T01:28:43.805Z,-5.97
2023-02-16T01:31:11.410Z,-6.00
2023-02-16T01:33:38.019Z,-5.92
2023-02-16T01:36:05.643Z,-5.89
2023-02-16T01:38:32.355Z,-5.84
2023-02-16T01:41:22.838Z,-5.81
2023-02-16T01:43:59.843Z,-5.77
2023-02-16T01:46:53.173Z,-5.69
2023-02-16T01:49:21.026Z,-5.62
2023-02-16T01:52:01.253Z,-5.53
2023-02-16T01:54:53.343Z,-5.43
2023-02-16T01:57:33.596Z,-5.40
2023-02-16T02:00:29.702Z,-5.31
2023-02-16T02:03:19.849Z,-5.25
2023-02-16T02:05:48.434Z,-5.26
2023-02-16T02:08:17.938Z,-5.25
2023-02-16T02:11:09.124Z,-5.28
2023-02-16T02:14:00.780Z,-5.40
2023-02-16T02:16:28.457Z,-5.47
2023-02-16T02:18:55.261Z,-5.51
2023-02-16T02:22:21.973Z,-5.43
2023-02-16T02:25:33.233Z,-5.26
2023-02-16T02:28:25.773Z,-5.16
2023-02-16T02:31:10.681Z,-5.06
2023-02-16T02:34:15.492Z,-4.99
2023-02-16T02:36:45.428Z,-4.97
2023-02-16T02:39:45.993Z,-4.96
2023-02-16T02:42:51.685Z,-4.81
2023-02-16T02:45:36.161Z,-4.83
2023-02-16T02:48:03.156Z,-5.02
2023-02-16T02:50:32.567Z,-5.12
2023-02-16T02:53:02.237Z,-5.18
2023-02-16T02:55:52.151Z,-5.17
2023-02-16T02:58:42.903Z,-5.18
2023-02-16T03:01:11.924Z,-5.16
2023-02-16T03:03:46.632Z,-5.19
2023-02-16T03:06:33.896Z,-5.05
2023-02-16T03:09:14.187Z,-5.01
2023-02-16T03:12:00.998Z,-5.10
2023-02-16T03:14:39.460Z,-5.06
2023-02-16T03:17:36.748Z,-5.03
2023-02-16T03:20:25.524Z,-5.02
2023-02-16T03:23:10.859Z,-4.88
2023-02-16T03:25:57.841Z,-4.78
2023-02-16T03:28:46.533Z,-4.73
2023-02-16T03:31:18.771Z,-4.82
2023-02-16T03:33:46.918Z,-4.88
2023-02-16T03:36:13.831Z,-5.02
2023-02-16T03:38:40.381Z,-4.96
2023-02-16T03:41:07.012Z,-4.81
2023-02-16T03:43:34.266Z,-4.87
2023-02-16T03:46:00.886Z,-5.05
2023-02-16T03:48:27.498Z,-5.33
2023-02-16T03:50:54.180Z,-5.57
2023-02-16T03:53:20.739Z,-5.56
2023-02-16T03:55:48.536Z,-5.65
2023-02-16T03:58:18.459Z,-5.72
2023-02-16T04:00:45.357Z,-5.70
2023-02-16T04:03:12.140Z,-5.61
2023-02-16T04:05:38.794Z,-5.79
2023-02-16T04:08:06.551Z,-5.93
2023-02-16T04:10:33.331Z,-6.13
2023-02-16T04:13:00.042Z,-6.35
2023-02-16T04:15:28.560Z,-6.41
2023-02-16T04:17:55.414Z,-6.45
2023-02-16T04:20:24.968Z,-6.22
2023-02-16T04:22:51.586Z,-6.26
2023-02-16T04:25:18.934Z,-6.16
2023-02-16T04:27:45.983Z,-5.96
2023-02-16T04:30:15.198Z,-6.15
2023-02-16T04:32:41.822Z,-6.36
2023-02-16T04:35:08.377Z,-6.44
2023-02-16T04:37:35.687Z,-6.47
2023-02-16T04:40:02.975Z,-6.50
2023-02-16T04:42:29.560Z,-6.45
2023-02-16T04:44:56.089Z,-6.40
2023-02-16T04:47:25.892Z,-6.22
2023-02-16T04:49:53.740Z,-5.95
2023-02-16T04:52:20.648Z,-5.94
2023-02-16T04:54:47.462Z,-5.91
2023-02-16T04:57:14.026Z,-6.02
2023-02-16T04:59:40.576Z,-5.98
2023-02-16T05:02:07.418Z,-5.96
2023-02-16T05:04:34.518Z,-5.94
2023-02-16T05:07:01.212Z,-5.70
2023-02-16T05:09:27.808Z,-5.67
2023-02-16T05:12:12.909Z,-5.57
2023-02-16T05:14:42.599Z,-5.55
2023-02-16T05:17:15.004Z,-5.62
2023-02-16T05:19:43.732Z,-5.71
2023-02-16T05:22:11.085Z,-5.60
2023-02-16T05:24:38.320Z,-5.55
2023-02-16T05:27:07.000Z,-5.43
2023-02-16T05:29:34.126Z,-5.57
2023-02-16T05:32:04.273Z,-5.55
2023-02-16T05:34:31.544Z,-5.44
2023-02-16T05:36:58.086Z,-5.40
2023-02-16T05:39:25.025Z,-5.36
2023-02-16T05:41:51.651Z,-5.48
2023-02-16T05:44:18.676Z,-5.67
2023-02-16T05:46:46.577Z,-5.65
2023-02-16T05:49:14.304Z,-5.79
2023-02-16T05:51:40.869Z,-5.73
2023-02-16T05:54:08.280Z,-5.81
2023-02-16T05:56:35.024Z,-5.99
2023-02-16T05:59:01.634Z,-6.03
2023-02-16T06:01:29.205Z,-5.95
2023-02-16T06:03:55.815Z,-5.93
2023-02-16T06:06:22.423Z,-5.97
2023-02-16T06:08:48.998Z,-5.94
2023-02-16T06:11:34.341Z,-5.91
2023-02-16T06:14:02.651Z,-5.93
2023-02-16T06:16:31.637Z,-5.87
2023-02-16T06:18:59.154Z,-5.85
2023-02-16T06:21:26.662Z,-5.72
2023-02-16T06:23:53.552Z,-5.71
2023-02-16T06:26:20.304Z,-5.67
2023-02-16T06:28:46.920Z,-5.70
2023-02-16T06:31:14.024Z,-5.53
2023-02-16T06:33:40.776Z,-5.35
2023-02-16T06:36:07.778Z,-5.27
2023-02-16T06:38:34.317Z,-5.43
2023-02-16T06:41:01.142Z,-5.55
2023-02-16T06:43:29.881Z,-5.66
2023-02-16T06:45:57.467Z,-5.48
2023-02-16T06:48:24.172Z,-5.53
2023-02-16T06:50:51.297Z,-5.42
2023-02-16T06:53:18.074Z,-5.44
2023-02-16T06:55:44.667Z,-5.51
2023-02-16T06:58:11.545Z,-5.67
2023-02-16T07:00:38.532Z,-5.64
2023-02-16T07:03:05.247Z,-5.61
2023-02-16T07:05:31.822Z,-5.46
2023-02-16T07:07:58.362Z,-5.51
2023-02-16T07:10:24.889Z,-5.48
2023-02-16T07:12:51.474Z,-5.48
2023-02-16T07:15:18.050Z,-5.51
2023-02-16T07:17:44.619Z,-5.27
2023-02-16T07:20:12.866Z,-5.09
2023-02-16T07:22:39.828Z,-4.97
2023-02-16T07:25:06.907Z,-4.98
2023-02-16T07:27:33.438Z,-5.23
2023-02-16T07:30:00.000Z,-5.42
2023-02-16T07:32:27.218Z,-5.36
2023-02-16T07:34:53.853Z,-5.32
2023-02-16T07:37:20.379Z,-5.22
2023-02-16T07:39:46.941Z,-5.27
2023-02-16T07:42:13.532Z,-5.14
2023-02-16T07:44:40.029Z,-4.87
2023-02-16T07:47:06.635Z,-4.75
2023-02-16T07:49:33.221Z,-4.44
2023-02-16T07:51:59.811Z,-4.52
2023-02-16T07:54:26.364Z,-4.56
2023-02-16T07:56:52.953Z,-4.22
2023-02-16T07:59:19.483Z,-3.96
2023-02-16T08:01:46.184Z,-3.83
2023-02-16T08:04:12.837Z,-3.72
2023-02-16T08:06:39.815Z,-3.81
2023-02-16T08:09:06.372Z,-3.78
2023-02-16T08:11:33.101Z,-3.65
2023-02-16T08:14:00.407Z,-3.58
2023-02-16T08:16:28.373Z,-3.38
2023-02-16T08:19:00.030Z,-3.24
2023-02-16T08:21:31.051Z,-3.20
2023-02-16T08:24:02.887Z,-3.24
2023-02-16T08:26:37.660Z,-3.19
2023-02-16T08:29:05.868Z,-3.26
2023-02-16T08:31:35.184Z,-3.47
2023-02-16T08:34:03.442Z,-3.41
2023-02-16T08:36:35.174Z,-3.14
2023-02-16T08:39:07.586Z,-3.00
2023-02-16T08:41:36.862Z,-2.99
2023-02-16T08:44:07.688Z,-3.01
2023-02-16T08:46:35.510Z,-2.95
2023-02-16T08:49:02.364Z,-2.90
2023-02-16T08:51:31.853Z,-2.71
2023-02-16T08:54:00.280Z,-2.60
2023-02-16T08:56:29.739Z,-2.67
2023-02-16T08:58:57.096Z,-2.78
2023-02-16T09:01:23.919Z,-2.87
2023-02-16T09:03:51.269Z,-2.81
2023-02-16T09:06:21.445Z,-2.76
2023-02-16T09:08:53.115Z,-2.65
2023-02-16T09:11:20.635Z,-2.64
2023-02-16T09:13:47.502Z,-2.53
2023-02-16T09:16:21.048Z,-2.33
2023-02-16T09:18:48.559Z,-2.47
2023-02-16T09:21:18.401Z,-2.29
2023-02-16T09:23:50.019Z,-2.22
2023-02-16T09:26:18.332Z,-2.25
2023-02-16T09:28:45.936Z,-2.33
2023-02-16T09:31:25.812Z,-2.18
2023-02-16T09:33:58.144Z,-2.21
2023-02-16T09:36:24.892Z,-2.11
2023-02-16T09:38:51.647Z,-2.01
2023-02-16T09:41:43.301Z,-1.91
2023-02-16T09:44:15.776Z,-2.03
2023-02-16T09:46:42.865Z,-2.12
2023-02-16T09:49:34.877Z,-2.13
2023-02-16T09:52:42.794Z,-1.94
2023-02-16T09:55:16.203Z,-2.04
2023-02-16T09:57:57.045Z,-1.97
2023-02-16T10:00:43.595Z,-1.70
2023-02-16T10:03:19.097Z,-1.59
2023-02-16T10:06:03.082Z,-1.44
2023-02-16T10:08:32.742Z,-1.70
2023-02-16T10:14:37.167Z,-1.33
2023-02-16T10:17:28.379Z,-1.08
2023-02-16T10:20:23.745Z,-1.03
2023-02-16T10:23:08.087Z,-1.25
2023-02-16T10:25:44.260Z,-1.10
2023-02-16T10:28:19.464Z,-1.29
2023-02-16T10:30:58.347Z,-1.21
2023-02-16T10:33:38.268Z,-1.24
2023-02-16T10:36:29.289Z,-1.12
2023-02-16T10:39:09.880Z,-0.77
2023-02-16T10:41:45.713Z,-0.68
2023-02-16T10:44:28.752Z,-0.94
2023-02-16T10:47:00.595Z,-1.04
2023-02-16T10:49:30.607Z,-1.07
2023-02-16T10:51:59.230Z,-0.87
2023-02-16T10:54:29.682Z,-0.89
2023-02-16T10:57:05.489Z,-0.76
2023-02-16T10:59:40.988Z,-0.70
2023-02-16T11:02:29.085Z,-0.71
2023-02-16T11:04:58.139Z,-0.97
2023-02-16T11:07:28.318Z,-1.32
2023-02-16T11:09:57.341Z,-1.30
2023-02-16T11:12:24.336Z,-0.93
2023-02-16T11:14:58.910Z,-0.55
2023-02-16T11:17:26.334Z,-0.33
2023-02-16T11:20:00.120Z,-0.17
2023-02-16T11:22:39.634Z,-0.06
2023-02-16T11:25:18.808Z,-0.32
2023-02-16T11:27:58.200Z,-0.53
2023-02-16T11:30:37.152Z,-0.86
2023-02-16T11:33:18.411Z,-0.59
2023-02-16T11:35:45.803Z,-0.55
2023-02-16T11:38:37.050Z,-0.10
2023-02-16T11:41:07.217Z,0.18
2023-02-16T11:43:37.661Z,0.18
2023-02-16T11:46:14.864Z,0.18
2023-02-16T11:48:42.728Z,0.31
2023-02-16T11:51:15.183Z,0.42
2023-02-16T11:53:44.315Z,0.52
2023-02-16T11:56:27.480Z,0.36
2023-02-16T11:59:05.410Z,0.34
2023-02-16T12:02:00.592Z,0.55
2023-02-16T12:04:57.856Z,0.63
2023-02-16T12:07:47.016Z,0.42
2023-02-16T12:10:28.728Z,0.20
2023-02-16T12:13:04.868Z,0.17
2023-02-16T12:16:02.011Z,0.61
2023-02-16T12:19:14.205Z,0.62
2023-02-16T12:22:28.259Z,0.29
2023-02-16T12:25:46.037Z,0.34
2023-02-16T12:28:24.662Z,-0.14
2023-02-16T12:31:17.409Z,0.09
2023-02-16T12:34:13.706Z,0.03
2023-02-16T12:37:17.581Z,0.23
2023-02-16T12:40:02.494Z,0.21
2023-02-16T12:42:32.007Z,0.14
2023-02-16T12:45:04.966Z,0.25
2023-02-16T12:47:37.809Z,0.13
2023-02-16T12:50:29.804Z,0.08
2023-02-16T12:53:03.016Z,-0.04
2023-02-16T12:55:38.714Z,-0.34
2023-02-16T12:58:07.972Z,-0.36
2023-02-16T13:00:48.606Z,-0.44
2023-02-16T13:03:23.430Z,-0.68
2023-02-16T13:06:00.581Z,-0.68
2023-02-16T13:08:39.331Z,-0.82
2023-02-16T13:11:14.124Z,-0.93
2023-02-16T13:13:41.471Z,-0.94
2023-02-16T13:16:30.766Z,-1.10
2023-02-16T13:18:58.272Z,-1.14
2023-02-16T13:21:51.346Z,-1.09
2023-02-16T13:24:46.526Z,-1.31
2023-02-16T13:27:32.708Z,-1.20
2023-02-16T13:30:21.046Z,-1.14
2023-02-16T13:33:07.152Z,-1.41
2023-02-16T13:36:22.969Z,-1.33
2023-02-16T13:39:22.805Z,-1.05
2023-02-16T13:42:14.787Z,-1.04
2023-02-16T13:45:04.551Z,-0.93
2023-02-16T13:47:37.046Z,-0.75
2023-02-16T13:50:09.783Z,-0.53
2023-02-16T13:52:41.246Z,-0.59
2023-02-16T13:55:31.671Z,-0.77
2023-02-16T13:58:04.471Z,-0.85
2023-02-16T14:00:57.365Z,-1.00
2023-02-16T14:03:23.888Z,-0.93
2023-02-16T14:05:56.338Z,-0.87
2023-02-16T14:08:30.461Z,-0.90
2023-02-16T14:11:04.027Z,-1.00
2023-02-16T14:13:39.378Z,-1.04
2023-02-16T14:16:13.293Z,-0.91
2023-02-16T14:18:55.091Z,-1.00
2023-02-16T14:21:41.909Z,-0.95
2023-02-16T14:24:33.307Z,-0.93
2023-02-16T14:27:10.726Z,-0.82
2023-02-16T14:29:38.947Z,-0.94
2023-02-16T14:32:33.876Z,-1.12
2023-02-16T14:35:08.876Z,-0.87
2023-02-16T14:37:44.485Z,-0.90
2023-02-16T14:40:31.713Z,-0.77
2023-02-16T14:43:05.116Z,-0.72
2023-02-16T14:45:53.772Z,-0.64
2023-02-16T14:48:41.404Z,-0.73
2023-02-16T14:51:32.098Z,-0.86
2023-02-16T14:54:53.038Z,-0.94
2023-02-16T14:57:37.322Z,-0.95
2023-02-16T15:00:19.584Z,-1.01
2023-02-16T15:03:14.024Z,-1.19
2023-02-16T15:05:40.890Z,-1.54
2023-02-16T15:08:35.364Z,-1.61
2023-02-16T15:11:23.060Z,-1.75
2023-02-16T15:13:53.320Z,-1.88
2023-02-16T15:16:22.698Z,-1.87
2023-02-16T15:18:53.429Z,-1.80
2023-02-16T15:21:21.513Z,-1.99
2023-02-16T15:23:54.094Z,-2.25
2023-02-16T15:26:24.556Z,-2.20
2023-02-16T15:28:56.861Z,-2.03
2023-02-16T15:31:32.521Z,-1.97
2023-02-16T15:34:08.269Z,-2.30
2023-02-16T15:36:38.437Z,-2.29
2023-02-16T15:39:41.295Z,-2.35
2023-02-16T15:42:15.007Z,-2.38
2023-02-16T15:44:41.768Z,-2.44
2023-02-16T15:47:10.674Z,-2.41
2023-02-16T15:49:39.939Z,-2.50
2023-02-16T15:52:12.178Z,-2.78
2023-02-16T15:54:40.596Z,-3.15
2023-02-16T15:57:30.923Z,-3.45
2023-02-16T16:00:20.828Z,-3.49
2023-02-16T16:02:58.469Z,-3.66
2023-02-16T16:05:28.836Z,-3.75
2023-02-16T16:07:57.500Z,-3.81
2023-02-16T16:10:32.701Z,-3.91
2023-02-16T16:13:03.285Z,-3.88
2023-02-16T16:15:32.564Z,-4.00
2023-02-16T16:18:00.972Z,-4.02
2023-02-16T16:20:41.660Z,-4.03
2023-02-16T16:23:17.061Z,-4.06
2023-02-16T16:25:46.812Z,-4.09
2023-02-16T16:28:33.525Z,-4.21
2023-02-16T16:31:12.439Z,-4.30
2023-02-16T16:33:59.799Z,-4.34
2023-02-16T16:36:40.363Z,-4.36
2023-02-16T16:39:19.069Z,-4.35
2023-02-16T16:41:56.565Z,-4.43
2023-02-16T16:44:33.081Z,-4.47
2023-02-16T16:47:27.014Z,-4.51
2023-02-16T16:49:58.242Z,-4.55
2023-02-16T16:52:40.912Z,-4.59
2023-02-16T16:55:19.677Z,-4.53
2023-02-16T16:57:48.861Z,-4.48
2023-02-16T17:00:17.145Z,-4.53
2023-02-16T17:02:43.859Z,-4.55
2023-02-16T17:05:11.094Z,-4.66
2023-02-16T17:07:37.749Z,-4.70
2023-02-16T17:10:05.254Z,-4.81
2023-02-16T17:12:32.427Z,-4.94
2023-02-16T17:15:01.028Z,-5.02
2023-02-16T17:17:27.913Z,-5.14
2023-02-16T17:19:54.531Z,-5.10
2023-02-16T17:22:21.850Z,-5.04
2023-02-16T17:24:48.475Z,-5.17
2023-02-16T17:27:15.291Z,-5.35
2023-02-16T17:29:44.752Z,-5.45
2023-02-16T17:32:11.461Z,-5.50
2023-02-16T17:34:38.198Z,-5.59
2023-02-16T17:37:09.326Z,-5.73
2023-02-16T17:39:36.527Z,-5.91
2023-02-16T17:42:03.567Z,-5.92
2023-02-16T17:44:30.318Z,-5.86
2023-02-16T17:46:57.181Z,-5.63
2023-02-16T17:49:23.876Z,-5.44
2023-02-16T17:51:50.478Z,-5.23
2023-02-16T17:54:17.131Z,-5.09
2023-02-16T17:56:46.645Z,-5.02
2023-02-16T17:59:15.508Z,-5.13
2023-02-16T18:01:45.555Z,-5.39
2023-02-16T18:04:12.438Z,-5.59
2023-02-16T18:06:39.096Z,-5.71
2023-02-16T18:09:06.012Z,-5.77
2023-02-16T18:11:32.673Z,-5.56
2023-02-16T18:13:59.270Z,-5.42
2023-02-16T18:16:27.410Z,-5.38
2023-02-16T18:18:54.762Z,-5.69
2023-02-16T18:21:21.320Z,-5.78
2023-02-16T18:23:48.039Z,-5.87
2023-02-16T18:26:16.289Z,-5.96
2023-02-16T18:28:44.177Z,-5.78
2023-02-16T18:31:14.557Z,-5.85
2023-02-16T18:33:41.394Z,-5.87
2023-02-16T18:36:08.713Z,-5.80
2023-02-16T18:38:35.395Z,-5.76
2023-02-16T18:41:02.069Z,-5.84
2023-02-16T18:43:29.597Z,-5.89
2023-02-16T18:45:56.268Z,-5.79
2023-02-16T18:48:23.409Z,-5.82
2023-02-16T18:50:50.123Z,-5.83
2023-02-16T18:53:16.703Z,-5.94
2023-02-16T18:55:43.297Z,-6.01
2023-02-16T18:58:12.954Z,-6.00
2023-02-16T19:00:39.662Z,-6.00
2023-02-16T19:03:06.387Z,-6.02
2023-02-16T19:05:33.630Z,-5.57
2023-02-16T19:08:00.180Z,-5.14
2023-02-16T19:10:27.475Z,-5.08
2023-02-16T19:12:54.077Z,-5.00
2023-02-16T19:15:20.618Z,-5.17
2023-02-16T19:17:47.329Z,-5.36
2023-02-16T19:20:18.155Z,-5.43
2023-02-16T19:22:46.546Z,-5.15
2023-02-16T19:25:14.173Z,-5.13
2023-02-16T19:27:41.026Z,-5.07
2023-02-16T19:30:08.392Z,-4.91
2023-02-16T19:32:35.371Z,-4.74
2023-02-16T19:35:02.185Z,-4.54
2023-02-16T19:37:28.926Z,-4.66
2023-02-16T19:39:55.621Z,-4.73
2023-02-16T19:42:22.292Z,-4.77
2023-02-16T19:44:49.118Z,-4.75
2023-02-16T19:47:15.638Z,-4.71
2023-02-16T19:49:42.708Z,-4.76
2023-02-16T19:52:09.407Z,-4.76
2023-02-16T19:54:35.986Z,-4.64
2023-02-16T19:57:03.834Z,-4.12
2023-02-16T19:59:31.633Z,-3.78
2023-02-16T20:01:59.056Z,-3.58
2023-02-16T20:04:26.126Z,-3.17
2023-02-16T20:06:54.442Z,-2.30
2023-02-16T20:09:22.125Z,-1.60
2023-02-16T20:11:49.674Z,-1.06
2023-02-16T20:14:16.438Z,-0.62
2023-02-16T20:16:43.758Z,-0.24
2023-02-16T20:19:10.587Z,0.01
2023-02-16T20:21:37.431Z,0.04
2023-02-16T20:24:06.168Z,-0.19
2023-02-16T20:26:36.744Z,-1.59
2023-02-16T20:29:05.776Z,-1.71
2023-02-16T20:31:36.233Z,-1.06
2023-02-16T20:34:03.983Z,-0.41
2023-02-16T20:36:32.089Z,-0.07
2023-02-16T20:38:59.662Z,-0.59
2023-02-16T20:41:26.296Z,-2.96
2023-02-16T20:43:53.326Z,-3.99
2023-02-16T20:46:23.683Z,-4.38
2023-02-16T20:48:51.057Z,-4.88
2023-02-16T20:51:19.401Z,-5.36
2023-02-16T20:53:46.493Z,-5.68
2023-02-16T20:56:23.116Z,-5.70
2023-02-16T20:58:51.649Z,-5.42
2023-02-16T21:01:28.813Z,-5.46
2023-02-16T21:03:57.219Z,-5.54
2023-02-16T21:06:24.211Z,-5.60
2023-02-16T21:08:50.918Z,-5.84
2023-02-16T21:11:18.392Z,-6.10
2023-02-16T21:13:46.064Z,-6.24
2023-02-16T21:16:14.219Z,-6.46
2023-02-16T21:24:04.642Z,-6.39
2023-02-16T21:26:31.201Z,-6.23
2023-02-16T21:45:14.564Z,-6.06
2023-02-16T22:14:40.404Z,-5.78
2023-02-16T22:17:07.720Z,-5.81
2023-02-16T22:19:34.299Z,-5.80
2023-02-16T22:22:00.838Z,-5.75
2023-02-16T22:32:26.448Z,-5.52
2023-02-16T22:34:54.311Z,-5.51
2023-02-16T22:37:20.871Z,-5.48
2023-02-16T22:39:47.565Z,-5.49
2023-02-16T22:42:14.096Z,-5.46
2023-02-16T22:44:40.645Z,-5.32
2023-02-16T22:47:07.252Z,-5.16
2023-02-16T22:49:33.835Z,-4.94
2023-02-16T22:52:00.387Z,-4.74
2023-02-16T22:54:26.932Z,-4.65
2023-02-16T22:56:53.482Z,-4.58
2023-02-16T22:59:20.029Z,-4.55
2023-02-16T23:01:46.615Z,-4.57
2023-02-16T23:04:15.451Z,-4.74
2023-02-16T23:06:44.982Z,-4.93
2023-02-16T23:09:20.271Z,-5.20
2023-02-16T23:11:48.235Z,-5.43
2023-02-16T23:14:18.569Z,-5.47
2023-02-16T23:16:50.763Z,-5.59
2023-02-16T23:19:20.800Z,-5.66
2023-02-16T23:21:48.145Z,-5.92
2023-02-16T23:24:17.701Z,-6.35
2023-02-16T23:26:44.847Z,-6.33
2023-02-16T23:29:11.888Z,-6.17
2023-02-16T23:31:40.672Z,-6.01
2023-02-16T23:34:07.800Z,-5.90
2023-02-16T23:36:36.799Z,-5.82
2023-02-16T23:39:09.046Z,-5.70
2023-02-16T23:41:36.317Z,-5.57
2023-02-16T23:44:04.282Z,-5.51
2023-02-16T23:46:31.282Z,-5.46
2023-02-16T23:48:57.975Z,-5.39
2023-02-16T23:51:24.902Z,-5.37
2023-02-16T23:53:51.554Z,-5.42
2023-02-16T23:56:27.064Z,-5.40
2023-02-16T23:58:57.436Z,-5.35
